Ana Sayfa
METAR-TAF:

METAR-TAF

Havaalanları :

Tahlequah, Oklahoma, Amerika Birleşik Devletleri

Enlem: 35-55-44N, Boylam: 095-00-16W, yükseklik: 266 m

Güncel hava durumu gözlemi

Rapor saat 12:35 UTC de 16 dakika önce yapıldı.
Rüzgar güney/güneydoğudan 8 kt ve 17 kt'a kadar ani rüzgarlar
Sıcaklık 25°C
Nem 74%
Basınç 1014 hPa
Görüş mesafesi: 16.1 km
Açık gökyüzü

METAR: KTQH 181235Z AUTO 15008G17KT 10SM CLR 25/20 A2994 RMK AO2

Saat: 07:51 (12:51 UTC)


TAF: eksik

4.000'den fazla havaalanı için hava durumu gözlemleri ve tahminleri (METAR ve TAF raporları).

Kullanılabilir istasyonlar harita üzerinde sarı ve kırmızı noktalarla gösterilir.

İstasyonun adını görmek için fareyi noktanın üzerinde gezdirin.

Sonrasında hava gözlem ve tahminlerini görmek için tıklayın.

Haritayı değiştirmek için: yaklaştırmak için siyah artı işaretli yeşil düğmeye ve uzaklaştırmak için de eksi işaretli düğmeye hızla tıklayın; bitişik haritalar için yeşil okları kullanın.


METAR-TAF: